Aérodrome :
LOGIN :

S'inscrire | Disclaimer

   EN    FR    IT 

 










Légende :    VFR   VFR Marginal   IFR   IFR Intensif   IFR Très Intensif
Visi : 
Plafond : 
>= 8 km
>= 3000ft
5 à 8 km
1000 à 3000 ft
1500m à 5 km
500 à 1000 ft
800 à 1500m
200 à 500 ft
< 800m
< 200 ft
Symboles :   Orages  Brouillard  Fortes neiges  Fortes précipitations  Vent > 20 kt
SIGMETs :   Divers  Orages  Givrage  Turbulence  Onde Orograph.  Cendres Volcan.






- Altitude de l'aérodrome : 24 ft
- Code IATA : SGD


EKSB - Sonderborg

DERNIER METAR :
  • 170020Z AUTO 18004KT 9999 NCD 12/11 Q1008

METARs EXPIRÉS :
  • 162350Z AUTO 18004KT 150V230 9999 NCD 12/11 Q1008
  • 162320Z AUTO 18005KT 150V210 9999 NCD 13/11 Q1008
  • 162250Z AUTO 17005KT 140V210 9999 FEW067/// 13/12 Q1008
  • 162220Z AUTO 18005KT 150V210 9999 NCD 13/12 Q1008
  • 162150Z AUTO 17006KT 140V210 9999 NCD 13/12 Q1007
  • 162120Z AUTO 16005KT 9999 NCD 13/12 Q1007
  • 162050Z AUTO 16005KT 9999 FEW170/// 13/12 Q1007
  • 162020Z AUTO 17005KT 140V200 9999 FEW062/// BKN076/// BKN170/// 14/12 Q1007
  • 161950Z AUTO 15007KT 9999 -RA OVC081/// 14/12 Q1007

Prévision TAF périmée.



MET'MAP, la Météo Aéronautique d'un coup d'oeil ! - Copyright ORBIFLY Décembre 2007 - Disclaimer

ORBIFLY MET'MAP TEAM :

Programmation & Développement : Alexandra Zaïnal
Sur une idée originale de : Baudouin d'Aumeries
Soutien technique & logistique : Manuel Goepfert
Assistance : Marc-Olivier Méhu




SOURCES & CREDITS :

   NOAA